RCGM weather

CLOSED Taoyuan Air Base
Taoyuan City, Taoyuan County, Taiwan

Public forecast

Using degrees Celsius for public forecast. Weather courtesy of forecast.io.

METAR (pilot weather report)

Closest report is Taiwan Taoyuan International Airport, 1.4 nm (2.6 km) NNW. Retrieved 2019/05/21 10:30 UTC (5 minutes ago):

RCTP 211030Z 09012KT 9999 FEW020 BKN180 23/13 Q1010 NOSIG RMK A2984

TAF (pilot weather forecast)

Closest forecast is Taiwan Taoyuan International Airport, 1.4 nm (2.6 km) NNW. Retrieved 2019/05/21 06:00 UTC (5 hours ago):

TAF RCTP 210500Z 2106/2212 08010KT 9999 FEW015 BKN032 TEMPO 2106/2112 09017KT TEMPO 2202/2209 07015KT